createdAt,value
2022-12-28T00:01:17.751Z,8.50
2022-12-28T00:03:44.914Z,8.60
2022-12-28T00:06:11.960Z,8.60
2022-12-28T00:08:38.645Z,8.70
2022-12-28T00:11:12.257Z,8.80
2022-12-28T00:13:45.673Z,8.60
2022-12-28T00:16:29.020Z,8.60
2022-12-28T00:18:57.351Z,8.60
2022-12-28T00:21:24.882Z,8.70
2022-12-28T00:23:53.633Z,8.70
2022-12-28T00:26:24.135Z,8.70
2022-12-28T00:28:50.850Z,8.70
2022-12-28T00:31:17.636Z,8.60
2022-12-28T00:33:45.965Z,8.60
2022-12-28T00:36:14.214Z,8.60
2022-12-28T00:38:42.160Z,8.60
2022-12-28T00:41:09.444Z,8.70
2022-12-28T00:43:36.603Z,8.70
2022-12-28T00:46:04.136Z,8.70
2022-12-28T00:48:30.895Z,8.50
2022-12-28T00:51:06.852Z,8.70
2022-12-28T00:53:33.465Z,8.70
2022-12-28T00:56:07.861Z,8.70
2022-12-28T00:58:35.311Z,8.60
2022-12-28T01:01:02.907Z,8.40
2022-12-28T01:03:30.726Z,8.40
2022-12-28T01:05:57.851Z,8.60
2022-12-28T01:08:24.437Z,8.60
2022-12-28T01:10:51.072Z,8.70
2022-12-28T01:13:17.666Z,8.50
2022-12-28T01:15:44.331Z,8.60
2022-12-28T01:18:10.954Z,8.60
2022-12-28T01:20:40.595Z,8.60
2022-12-28T01:23:09.035Z,8.40
2022-12-28T01:25:37.804Z,8.50
2022-12-28T01:28:05.339Z,8.40
2022-12-28T01:30:31.927Z,8.50
2022-12-28T01:33:01.505Z,8.50
2022-12-28T01:35:28.281Z,8.50
2022-12-28T01:37:56.977Z,8.40
2022-12-28T01:40:23.617Z,8.40
2022-12-28T01:42:50.201Z,8.40
2022-12-28T01:45:19.432Z,8.40
2022-12-28T01:47:47.503Z,8.50
2022-12-28T01:50:18.907Z,8.40
2022-12-28T01:53:00.239Z,8.40
2022-12-28T01:55:30.741Z,8.50
2022-12-28T01:58:12.710Z,8.50
2022-12-28T02:00:40.939Z,8.40
2022-12-28T02:03:17.676Z,8.40
2022-12-28T02:05:49.451Z,8.30
2022-12-28T02:08:32.427Z,8.40
2022-12-28T02:11:00.195Z,8.50
2022-12-28T02:13:26.936Z,8.40
2022-12-28T02:15:57.491Z,8.40
2022-12-28T02:18:25.337Z,8.50
2022-12-28T02:21:09.611Z,8.50
2022-12-28T02:24:28.484Z,8.50
2022-12-28T02:27:10.656Z,8.50
2022-12-28T02:30:00.656Z,8.60
2022-12-28T02:32:55.669Z,8.70
2022-12-28T02:35:42.518Z,8.70
2022-12-28T02:38:34.515Z,8.50
2022-12-28T02:41:09.194Z,8.60
2022-12-28T02:43:36.217Z,8.70
2022-12-28T02:46:39.943Z,8.50
2022-12-28T02:49:39.017Z,8.40
2022-12-28T02:53:01.532Z,8.40
2022-12-28T02:56:09.088Z,8.50
2022-12-28T02:59:02.609Z,8.50
2022-12-28T03:01:58.656Z,8.50
2022-12-28T03:04:42.419Z,8.50
2022-12-28T03:07:53.370Z,8.40
2022-12-28T03:10:41.666Z,8.50
2022-12-28T03:13:35.600Z,8.30
2022-12-28T03:16:08.656Z,8.20
2022-12-28T03:18:59.080Z,8.40
2022-12-28T03:21:49.677Z,8.40
2022-12-28T03:24:36.346Z,8.50
2022-12-28T03:27:28.370Z,8.40
2022-12-28T03:30:38.517Z,8.50
2022-12-28T03:33:08.384Z,8.60
2022-12-28T03:35:50.036Z,8.40
2022-12-28T03:38:27.355Z,8.30
2022-12-28T03:41:11.808Z,8.40
2022-12-28T03:43:46.412Z,8.20
2022-12-28T03:46:24.427Z,8.30
2022-12-28T03:48:52.360Z,8.20
2022-12-28T03:51:24.448Z,8.10
2022-12-28T03:53:53.233Z,8.20
2022-12-28T03:56:25.673Z,8.30
2022-12-28T03:58:55.551Z,8.30
2022-12-28T04:01:25.462Z,8.40
2022-12-28T04:03:52.402Z,8.10
2022-12-28T04:06:19.990Z,8.00
2022-12-28T04:08:47.201Z,8.00
2022-12-28T04:11:14.202Z,8.10
2022-12-28T04:13:43.262Z,8.10
2022-12-28T04:16:13.674Z,8.10
2022-12-28T04:18:42.241Z,8.10
2022-12-28T04:21:13.619Z,8.20
2022-12-28T04:23:43.090Z,8.10
2022-12-28T04:26:22.456Z,8.20
2022-12-28T04:28:52.145Z,8.10
2022-12-28T04:31:37.698Z,8.10
2022-12-28T04:34:09.246Z,8.10
2022-12-28T04:36:39.737Z,8.30
2022-12-28T04:39:10.950Z,8.40
2022-12-28T04:41:37.602Z,8.30
2022-12-28T04:44:04.278Z,8.40
2022-12-28T04:46:30.896Z,8.30
2022-12-28T04:48:57.491Z,8.20
2022-12-28T04:51:26.443Z,8.30
2022-12-28T04:53:53.978Z,8.30
2022-12-28T04:56:21.916Z,8.30
2022-12-28T04:58:49.005Z,8.40
2022-12-28T05:01:19.717Z,8.50
2022-12-28T05:03:55.157Z,8.10
2022-12-28T05:06:24.607Z,8.10
2022-12-28T05:08:51.788Z,8.10
2022-12-28T05:11:21.981Z,8.20
2022-12-28T05:13:48.861Z,8.20
2022-12-28T05:16:18.456Z,8.20
2022-12-28T05:18:45.256Z,8.10
2022-12-28T05:21:13.414Z,8.30
2022-12-28T05:23:40.520Z,8.10
2022-12-28T05:26:09.589Z,8.10
2022-12-28T05:28:36.163Z,8.10
2022-12-28T05:31:06.288Z,8.20
2022-12-28T05:33:34.822Z,7.90
2022-12-28T05:36:13.346Z,7.90
2022-12-28T05:38:39.997Z,8.00
2022-12-28T05:41:08.223Z,7.90
2022-12-28T05:43:35.125Z,8.00
2022-12-28T05:46:07.729Z,7.90
2022-12-28T05:48:36.326Z,8.00
2022-12-28T05:51:05.358Z,8.20
2022-12-28T05:53:32.384Z,8.20
2022-12-28T05:56:12.113Z,8.20
2022-12-28T05:58:41.601Z,8.10
2022-12-28T06:01:20.341Z,8.10
2022-12-28T06:03:51.819Z,8.00
2022-12-28T06:06:19.937Z,8.10
2022-12-28T06:08:48.149Z,8.00
2022-12-28T06:11:18.245Z,8.00
2022-12-28T06:13:45.352Z,7.90
2022-12-28T06:16:20.924Z,7.80
2022-12-28T06:18:47.910Z,7.90
2022-12-28T06:21:17.442Z,8.00
2022-12-28T06:23:45.324Z,8.00
2022-12-28T06:26:14.493Z,7.90
2022-12-28T06:28:42.336Z,7.80
2022-12-28T06:31:16.092Z,7.90
2022-12-28T06:33:42.923Z,8.10
2022-12-28T06:36:20.920Z,8.20
2022-12-28T06:38:49.439Z,8.20
2022-12-28T06:41:17.551Z,8.20
2022-12-28T06:43:45.545Z,8.20
2022-12-28T06:46:13.592Z,8.30
2022-12-28T06:48:41.161Z,8.30
2022-12-28T06:51:12.075Z,8.40
2022-12-28T06:53:39.219Z,8.30
2022-12-28T06:56:10.026Z,8.30
2022-12-28T06:58:36.618Z,8.30
2022-12-28T07:01:23.686Z,8.10
2022-12-28T07:03:52.506Z,8.10
2022-12-28T07:06:21.637Z,8.00
2022-12-28T07:08:49.571Z,8.10
2022-12-28T07:11:19.081Z,8.20
2022-12-28T07:13:46.047Z,8.20
2022-12-28T07:16:21.487Z,8.20
2022-12-28T07:18:48.502Z,8.20
2022-12-28T07:21:23.427Z,8.20
2022-12-28T07:23:51.534Z,8.20
2022-12-28T07:26:20.923Z,8.20
2022-12-28T07:28:49.283Z,8.20
2022-12-28T07:31:18.818Z,8.30
2022-12-28T07:33:46.406Z,8.20
2022-12-28T07:36:16.552Z,8.30
2022-12-28T07:38:43.618Z,8.20
2022-12-28T07:41:22.689Z,8.30
2022-12-28T07:43:49.858Z,8.30
2022-12-28T07:46:28.595Z,8.40
2022-12-28T07:48:57.025Z,8.40
2022-12-28T07:51:25.337Z,8.50
2022-12-28T07:53:53.205Z,8.50
2022-12-28T07:56:21.510Z,8.40
2022-12-28T07:58:52.787Z,8.30
2022-12-28T08:01:21.791Z,8.40
2022-12-28T08:03:48.835Z,8.40
2022-12-28T08:06:22.380Z,8.40
2022-12-28T08:08:51.481Z,8.50
2022-12-28T08:11:21.833Z,8.60
2022-12-28T08:13:50.464Z,8.60
2022-12-28T08:16:18.514Z,8.70
2022-12-28T08:18:45.723Z,8.60
2022-12-28T08:21:21.993Z,8.70
2022-12-28T08:23:49.495Z,8.70
2022-12-28T08:26:19.175Z,8.60
2022-12-28T08:28:47.036Z,8.70
2022-12-28T08:31:19.868Z,8.70
2022-12-28T08:33:47.580Z,8.60
2022-12-28T08:36:14.285Z,8.70
2022-12-28T08:38:42.702Z,8.70
2022-12-28T08:41:18.593Z,8.80
2022-12-28T08:43:45.897Z,8.80
2022-12-28T08:46:18.236Z,8.70
2022-12-28T08:48:46.919Z,8.80
2022-12-28T08:51:35.240Z,8.80
2022-12-28T08:54:02.587Z,8.70
2022-12-28T08:56:32.993Z,8.80
2022-12-28T08:58:59.957Z,8.90
2022-12-28T09:01:44.184Z,8.80
2022-12-28T09:04:20.346Z,8.90
2022-12-28T09:06:47.129Z,8.90
2022-12-28T09:09:15.539Z,8.90
2022-12-28T09:11:43.057Z,8.80
2022-12-28T09:14:17.010Z,8.90
2022-12-28T09:16:47.344Z,8.90
2022-12-28T09:19:15.436Z,8.90
2022-12-28T09:21:42.228Z,9.00
2022-12-28T09:24:08.934Z,9.00
2022-12-28T09:26:37.854Z,9.00
2022-12-28T09:29:06.897Z,9.00
2022-12-28T09:31:36.921Z,9.00
2022-12-28T09:36:52.371Z,9.00
2022-12-28T09:39:22.649Z,9.00
2022-12-28T09:41:54.878Z,9.10
2022-12-28T09:44:43.700Z,9.10
2022-12-28T09:47:17.242Z,9.10
2022-12-28T09:50:04.803Z,9.10
2022-12-28T09:52:38.747Z,9.00
2022-12-28T09:55:17.905Z,9.10
2022-12-28T09:57:50.514Z,9.10
2022-12-28T10:00:23.825Z,9.30
2022-12-28T10:03:01.721Z,9.20
2022-12-28T10:05:29.312Z,9.20
2022-12-28T10:07:58.781Z,9.20
2022-12-28T10:10:26.608Z,9.20
2022-12-28T10:12:53.710Z,9.00
2022-12-28T10:15:28.828Z,9.10
2022-12-28T10:17:55.466Z,9.20
2022-12-28T10:20:22.684Z,9.20
2022-12-28T10:22:55.688Z,9.30
2022-12-28T10:25:25.514Z,9.30
2022-12-28T10:27:52.633Z,9.20
2022-12-28T10:30:26.963Z,9.20
2022-12-28T10:33:02.997Z,9.20
2022-12-28T10:35:42.997Z,9.30
2022-12-28T10:38:29.283Z,9.30
2022-12-28T10:41:15.740Z,9.30
2022-12-28T10:44:03.442Z,9.30
2022-12-28T10:46:35.816Z,9.30
2022-12-28T10:49:03.430Z,9.20
2022-12-28T10:51:30.280Z,9.30
2022-12-28T10:53:58.094Z,9.30
2022-12-28T10:56:27.871Z,9.30
2022-12-28T10:59:15.431Z,9.30
2022-12-28T11:01:43.049Z,9.30
2022-12-28T11:04:21.648Z,9.40
2022-12-28T11:06:54.717Z,9.30
2022-12-28T11:09:27.223Z,9.30
2022-12-28T11:11:56.413Z,9.40
2022-12-28T11:14:36.195Z,9.40
2022-12-28T11:17:15.642Z,9.40
2022-12-28T11:19:42.413Z,9.40
2022-12-28T11:22:12.354Z,9.30
2022-12-28T11:24:42.046Z,9.40
2022-12-28T11:27:15.183Z,9.40
2022-12-28T11:29:45.422Z,9.40
2022-12-28T11:32:32.412Z,9.40
2022-12-28T11:34:59.936Z,9.40
2022-12-28T11:37:26.614Z,9.40
2022-12-28T11:39:53.879Z,9.40
2022-12-28T11:42:41.082Z,9.50
2022-12-28T11:45:16.932Z,9.60
2022-12-28T11:47:43.650Z,9.50
2022-12-28T11:50:38.250Z,9.40
2022-12-28T11:53:23.419Z,9.40
2022-12-28T11:56:08.322Z,9.50
2022-12-28T11:58:45.942Z,9.50
2022-12-28T12:01:28.134Z,9.60
2022-12-28T12:03:57.631Z,9.60
2022-12-28T12:06:45.756Z,9.60
2022-12-28T12:09:21.375Z,9.60
2022-12-28T12:12:03.631Z,9.50
2022-12-28T12:14:58.919Z,9.50
2022-12-28T12:17:43.118Z,9.50
2022-12-28T12:20:34.144Z,9.50
2022-12-28T12:23:09.356Z,9.60
2022-12-28T12:25:46.008Z,9.60
2022-12-28T12:28:37.796Z,9.60
2022-12-28T12:31:08.792Z,9.60
2022-12-28T12:33:37.586Z,9.70
2022-12-28T12:36:16.223Z,9.60
2022-12-28T12:39:08.570Z,9.50
2022-12-28T12:41:53.812Z,9.50
2022-12-28T12:44:36.002Z,9.60
2022-12-28T12:47:38.455Z,9.60
2022-12-28T12:50:32.884Z,9.70
2022-12-28T12:53:26.406Z,9.80
2022-12-28T12:56:03.811Z,9.80
2022-12-28T12:59:09.329Z,9.90
2022-12-28T13:01:54.773Z,9.80
2022-12-28T13:04:29.527Z,9.80
2022-12-28T13:07:00.540Z,9.80
2022-12-28T13:09:30.101Z,9.70
2022-12-28T13:11:57.757Z,9.80
2022-12-28T13:14:25.082Z,9.80
2022-12-28T13:16:56.994Z,9.80
2022-12-28T13:19:28.683Z,9.70
2022-12-28T13:21:57.783Z,9.70
2022-12-28T13:24:35.091Z,9.80
2022-12-28T13:27:03.316Z,9.80
2022-12-28T13:29:35.872Z,9.80
2022-12-28T13:32:02.504Z,9.80
2022-12-28T13:34:34.915Z,9.80
2022-12-28T13:37:07.308Z,9.80
2022-12-28T13:39:41.615Z,9.90
2022-12-28T13:42:27.370Z,9.90
2022-12-28T13:45:07.975Z,10.00
2022-12-28T13:47:42.055Z,10.20
2022-12-28T13:50:18.806Z,10.00
2022-12-28T13:52:47.236Z,10.00
2022-12-28T13:55:18.176Z,9.90
2022-12-28T13:57:54.167Z,9.90
2022-12-28T14:00:24.389Z,9.90
2022-12-28T14:02:54.932Z,10.00
2022-12-28T14:05:24.722Z,10.00
2022-12-28T14:07:54.141Z,10.10
2022-12-28T14:10:21.218Z,10.00
2022-12-28T14:12:49.710Z,9.90
2022-12-28T14:15:17.296Z,10.20
2022-12-28T14:17:46.699Z,10.30
2022-12-28T14:20:13.720Z,10.30
2022-12-28T14:22:41.377Z,10.30
2022-12-28T14:25:13.571Z,10.10
2022-12-28T14:27:44.378Z,10.10
2022-12-28T14:30:23.650Z,10.10
2022-12-28T14:32:50.941Z,10.10
2022-12-28T14:35:24.557Z,10.00
2022-12-28T14:38:00.902Z,10.00
2022-12-28T14:40:33.856Z,10.00
2022-12-28T14:43:09.559Z,9.90
2022-12-28T14:48:36.326Z,9.90
2022-12-28T14:51:17.578Z,9.90
2022-12-28T14:56:34.461Z,9.80
2022-12-28T14:59:01.769Z,9.90
2022-12-28T15:00:25.735Z,9.90
2022-12-28T15:01:43.332Z,9.90
2022-12-28T15:04:34.535Z,9.90
2022-12-28T15:07:01.144Z,9.80
2022-12-28T15:09:27.754Z,9.90
2022-12-28T15:12:09.802Z,9.90
2022-12-28T15:14:37.231Z,9.90
2022-12-28T15:17:04.085Z,9.90
2022-12-28T15:19:30.706Z,9.90
2022-12-28T15:21:57.356Z,9.90
2022-12-28T15:24:28.659Z,9.90
2022-12-28T15:27:00.165Z,9.90
2022-12-28T15:29:47.850Z,9.90
2022-12-28T15:32:13.329Z,9.90
2022-12-28T15:34:39.972Z,10.00
2022-12-28T15:37:06.584Z,9.90
2022-12-28T15:39:33.270Z,10.00
2022-12-28T15:41:59.854Z,10.00
2022-12-28T15:44:26.495Z,10.00
2022-12-28T15:46:53.410Z,10.00
2022-12-28T15:49:20.026Z,10.00
2022-12-28T15:51:46.714Z,10.00
2022-12-28T15:54:13.894Z,10.00
2022-12-28T15:56:41.436Z,9.90
2022-12-28T15:59:12.813Z,9.90
2022-12-28T16:01:42.098Z,9.90
2022-12-28T16:04:09.127Z,9.90
2022-12-28T16:06:41.862Z,10.00
2022-12-28T16:09:11.211Z,10.00
2022-12-28T16:11:37.846Z,9.90
2022-12-28T16:14:07.157Z,9.90
2022-12-28T16:16:38.813Z,9.90
2022-12-28T16:19:06.814Z,9.90
2022-12-28T16:21:33.947Z,10.00
2022-12-28T16:24:01.013Z,9.90
2022-12-28T16:26:28.102Z,10.00
2022-12-28T16:28:54.720Z,10.00
2022-12-28T16:31:33.191Z,10.00
2022-12-28T16:34:02.672Z,10.00
2022-12-28T16:36:29.733Z,10.00
2022-12-28T16:38:56.901Z,9.90
2022-12-28T16:41:23.989Z,9.90
2022-12-28T16:43:51.154Z,10.20
2022-12-28T16:46:18.566Z,10.20
2022-12-28T16:48:45.177Z,10.30
2022-12-28T16:51:12.538Z,10.20
2022-12-28T16:53:39.344Z,10.30
2022-12-28T16:56:07.026Z,10.10
2022-12-28T16:58:33.864Z,10.30
2022-12-28T17:01:07.467Z,10.30
2022-12-28T17:03:34.822Z,10.40
2022-12-28T17:06:01.604Z,10.40
2022-12-28T17:08:28.222Z,10.50
2022-12-28T17:10:55.242Z,10.40
2022-12-28T17:13:21.907Z,10.30
2022-12-28T17:15:48.741Z,10.10
2022-12-28T17:18:15.411Z,10.00
2022-12-28T17:20:42.050Z,10.00
2022-12-28T17:23:08.926Z,10.10
2022-12-28T17:25:36.422Z,10.00
2022-12-28T17:28:03.339Z,10.00
2022-12-28T17:30:30.160Z,10.00
2022-12-28T17:32:56.889Z,10.00
2022-12-28T17:35:23.506Z,9.90
2022-12-28T17:37:50.701Z,9.90
2022-12-28T17:40:17.498Z,9.80
2022-12-28T17:42:44.419Z,9.80
2022-12-28T17:45:12.175Z,9.80
2022-12-28T17:47:39.182Z,9.80
2022-12-28T17:50:06.641Z,9.80
2022-12-28T17:52:33.511Z,9.80
2022-12-28T17:55:00.244Z,9.80
2022-12-28T17:57:26.923Z,9.80
2022-12-28T17:59:53.513Z,9.80
2022-12-28T18:02:20.253Z,9.80
2022-12-28T18:04:47.989Z,9.90
2022-12-28T18:07:14.650Z,9.90
2022-12-28T18:09:41.317Z,9.90
2022-12-28T18:12:07.972Z,9.80
2022-12-28T18:14:34.725Z,9.70
2022-12-28T18:17:01.448Z,9.80
2022-12-28T18:19:28.117Z,9.70
2022-12-28T18:21:54.732Z,9.70
2022-12-28T18:24:21.687Z,9.70
2022-12-28T18:26:48.523Z,9.90
2022-12-28T18:29:15.204Z,9.80
2022-12-28T18:31:41.932Z,9.80
2022-12-28T18:34:08.641Z,9.80
2022-12-28T18:36:35.277Z,9.80
2022-12-28T18:39:03.592Z,9.80
2022-12-28T18:41:34.033Z,9.80
2022-12-28T18:44:02.703Z,9.80
2022-12-28T18:46:29.837Z,9.80
2022-12-28T18:48:56.707Z,9.80
2022-12-28T18:51:23.570Z,9.70
2022-12-28T18:53:50.734Z,9.70
2022-12-28T18:56:21.554Z,9.70
2022-12-28T18:58:55.885Z,9.80
2022-12-28T19:02:06.011Z,9.70
2022-12-28T19:04:11.938Z,9.70
2022-12-28T19:06:38.810Z,9.80
2022-12-28T19:09:06.773Z,9.80
2022-12-28T19:11:33.966Z,9.80
2022-12-28T19:14:02.921Z,9.80
2022-12-28T19:16:31.802Z,9.80
2022-12-28T19:19:00.023Z,9.70
2022-12-28T19:21:38.221Z,9.70
2022-12-28T19:24:07.353Z,9.70
2022-12-28T19:26:35.268Z,9.70
2022-12-28T19:29:03.344Z,9.70
2022-12-28T19:31:30.943Z,9.70
2022-12-28T19:33:57.657Z,9.70
2022-12-28T19:36:24.433Z,9.70
2022-12-28T19:38:55.719Z,9.70
2022-12-28T19:41:22.819Z,9.70
2022-12-28T19:43:49.791Z,9.70
2022-12-28T19:46:22.387Z,9.70
2022-12-28T19:48:52.746Z,9.70
2022-12-28T19:51:19.364Z,9.60
2022-12-28T19:53:45.980Z,9.70
2022-12-28T19:56:16.153Z,9.70
2022-12-28T19:58:44.329Z,9.70
2022-12-28T20:01:13.945Z,9.70
2022-12-28T20:03:41.729Z,9.60
2022-12-28T20:06:11.492Z,9.60
2022-12-28T20:08:38.361Z,9.60
2022-12-28T20:11:05.786Z,9.50
2022-12-28T20:13:33.771Z,9.60
2022-12-28T20:16:00.646Z,9.50
2022-12-28T20:18:27.318Z,9.60
2022-12-28T20:23:47.952Z,9.60
2022-12-28T20:26:15.065Z,9.60
2022-12-28T20:28:41.854Z,9.60
2022-12-28T20:31:11.762Z,9.50
2022-12-28T20:33:38.669Z,9.60
2022-12-28T20:36:14.847Z,9.60
2022-12-28T20:38:41.771Z,9.70
2022-12-28T20:41:38.891Z,9.70
2022-12-28T20:44:08.312Z,9.70
2022-12-28T20:46:35.524Z,9.80
2022-12-28T20:49:02.431Z,9.90
2022-12-28T20:51:29.243Z,9.70
2022-12-28T20:53:55.933Z,9.60
2022-12-28T20:56:22.999Z,9.60
2022-12-28T20:58:50.295Z,9.70
2022-12-28T21:01:17.695Z,9.70
2022-12-28T21:03:45.475Z,9.60
2022-12-28T21:06:12.620Z,9.60
2022-12-28T21:08:39.630Z,9.50
2022-12-28T21:11:06.543Z,9.60
2022-12-28T21:13:33.286Z,9.70
2022-12-28T21:16:04.192Z,9.70
2022-12-28T21:18:31.305Z,9.70
2022-12-28T21:20:59.836Z,9.80
2022-12-28T21:23:27.773Z,9.80
2022-12-28T21:26:05.919Z,9.80
2022-12-28T21:28:34.099Z,9.80
2022-12-28T21:31:03.676Z,9.70
2022-12-28T21:33:30.864Z,9.70
2022-12-28T21:36:12.508Z,9.80
2022-12-28T21:38:40.229Z,9.70
2022-12-28T21:41:09.893Z,9.70
2022-12-28T21:43:36.620Z,9.80
2022-12-28T21:46:13.050Z,9.80
2022-12-28T21:48:40.804Z,9.70
2022-12-28T21:51:30.341Z,9.70
2022-12-28T21:54:05.139Z,9.60
2022-12-28T21:56:33.670Z,9.60
2022-12-28T21:59:01.015Z,9.60
2022-12-28T22:01:47.454Z,9.60
2022-12-28T22:04:37.827Z,9.60
2022-12-28T22:07:05.862Z,9.60
2022-12-28T22:09:52.988Z,9.60
2022-12-28T22:12:36.094Z,9.60
2022-12-28T22:15:26.559Z,9.60
2022-12-28T22:18:04.636Z,9.70
2022-12-28T22:20:31.677Z,9.60
2022-12-28T22:23:00.985Z,9.70
2022-12-28T22:25:29.334Z,9.60
2022-12-28T22:27:57.030Z,9.70
2022-12-28T22:30:23.893Z,9.70
2022-12-28T22:32:50.516Z,9.60
2022-12-28T22:35:17.740Z,9.60
2022-12-28T22:37:44.436Z,9.60
2022-12-28T22:40:13.788Z,9.50
2022-12-28T22:42:44.735Z,9.60
2022-12-28T22:45:14.449Z,9.50
2022-12-28T22:47:41.696Z,9.60
2022-12-28T22:50:10.460Z,9.60
2022-12-28T22:52:37.179Z,9.60
2022-12-28T22:55:04.184Z,9.60
2022-12-28T22:57:30.842Z,9.60
2022-12-28T22:59:57.497Z,9.70
2022-12-28T23:02:24.388Z,9.70
2022-12-28T23:04:51.217Z,9.70
2022-12-28T23:07:18.094Z,9.60
2022-12-28T23:09:44.716Z,9.70
2022-12-28T23:12:13.115Z,9.80
2022-12-28T23:14:58.680Z,9.70
2022-12-28T23:17:26.568Z,9.70
2022-12-28T23:20:11.991Z,9.70
2022-12-28T23:23:11.251Z,9.70
2022-12-28T23:25:59.294Z,9.60
2022-12-28T23:28:26.685Z,9.70
2022-12-28T23:30:53.704Z,9.70
2022-12-28T23:33:20.349Z,9.70
2022-12-28T23:35:47.003Z,9.70
2022-12-28T23:38:13.605Z,9.60
2022-12-28T23:40:41.107Z,9.60
2022-12-28T23:43:08.426Z,9.60
2022-12-28T23:45:35.256Z,9.60
2022-12-28T23:48:02.489Z,9.70
2022-12-28T23:50:29.163Z,9.70
2022-12-28T23:52:55.823Z,9.70
2022-12-28T23:55:22.405Z,9.80
2022-12-28T23:57:49.103Z,9.80
